Time,TemperatureF,DewpointF,PressureIn,WindDirection,WindDirectionDegrees,WindSpeedMPH,WindSpeedGustMPH,Humidity,HourlyPrecipIn,Conditions,Clouds,dailyrainin,SolarRadiationWatts/m^2,SoftwareType,DateUTC
2013-08-20 00:03:00,72.0,71.0,-100.00,West,275,0.0,3.0,96,0.00,,,0.11,0.000000,,2013-08-20 04:03:00,
2013-08-20 00:43:00,71.0,70.0,-100.00,West,273,0.0,0.0,97,0.00,,,0.11,0.000000,,2013-08-20 04:43:00,
2013-08-20 00:54:00,71.0,70.0,-100.00,West,273,0.0,0.0,97,0.00,,,0.11,0.000000,,2013-08-20 04:54:00,
2013-08-20 01:02:00,71.0,70.0,-100.00,West,273,0.0,0.0,97,0.00,,,0.11,0.000000,,2013-08-20 05:02:00,
2013-08-20 01:43:00,70.0,70.0,-100.00,West,266,0.0,0.0,99,0.00,,,0.07,0.000000,,2013-08-20 05:43:00,
2013-08-20 01:52:00,70.0,70.0,-100.00,West,266,0.0,0.0,99,0.00,,,0.07,0.000000,,2013-08-20 05:52:00,
2013-08-20 02:02:00,70.0,70.0,-100.00,West,266,0.0,0.0,99,0.00,,,0.07,0.000000,,2013-08-20 06:02:00,
2013-08-20 02:42:00,70.0,70.0,-100.00,WNW,297,0.0,0.0,100,0.00,,,0.03,0.000000,,2013-08-20 06:42:00,
2013-08-20 02:52:00,70.0,70.0,-100.00,WNW,297,0.0,0.0,100,0.00,,,0.03,0.000000,,2013-08-20 06:52:00,
2013-08-20 03:01:00,70.0,70.0,-100.00,WNW,297,0.0,0.0,100,0.00,,,0.03,0.000000,,2013-08-20 07:01:00,
2013-08-20 03:42:00,68.0,68.0,-100.00,West,268,0.0,0.0,100,0.00,,,0.03,0.000000,,2013-08-20 07:42:00,
2013-08-20 03:52:00,68.0,68.0,-100.00,West,268,0.0,0.0,100,0.00,,,0.03,0.000000,,2013-08-20 07:52:00,
2013-08-20 04:02:00,68.0,68.0,-100.00,West,268,0.0,0.0,100,0.00,,,0.03,0.000000,,2013-08-20 08:02:00,
2013-08-20 04:42:00,67.0,67.0,-100.00,SW,217,0.0,0.0,100,0.00,,,0.03,0.000000,,2013-08-20 08:42:00,
2013-08-20 04:52:00,67.0,67.0,-100.00,SW,217,0.0,0.0,100,0.00,,,0.03,0.000000,,2013-08-20 08:52:00,
2013-08-20 05:01:00,67.0,67.0,-100.00,SW,217,0.0,0.0,100,0.00,,,0.03,0.000000,,2013-08-20 09:01:00,
2013-08-20 05:42:00,66.0,66.0,-100.00,SSW,194,0.0,0.0,100,0.00,,,0.03,0.000000,,2013-08-20 09:42:00,
2013-08-20 05:53:00,66.0,66.0,-100.00,SSW,194,0.0,0.0,100,0.00,,,0.03,0.000000,,2013-08-20 09:53:00,
2013-08-20 06:04:00,66.0,66.0,-100.00,SSW,194,0.0,0.0,100,0.00,,,0.03,0.000000,,2013-08-20 10:04:00,
2013-08-20 06:43:00,65.0,65.0,-100.00,SW,214,0.0,0.0,100,0.00,,,0.02,0.000000,,2013-08-20 10:43:00,
2013-08-20 06:52:00,65.0,65.0,-100.00,SW,214,0.0,0.0,100,0.00,,,0.02,0.000000,,2013-08-20 10:52:00,
2013-08-20 07:02:00,65.0,65.0,-100.00,SW,214,0.0,0.0,100,0.00,,,0.02,0.000000,,2013-08-20 11:02:00,
2013-08-20 07:42:00,65.0,65.0,-100.00,SSW,193,0.0,0.0,100,0.00,,,0.02,0.000000,,2013-08-20 11:42:00,
2013-08-20 07:52:00,65.0,65.0,-100.00,SSW,193,0.0,0.0,100,0.00,,,0.02,0.000000,,2013-08-20 11:52:00,
2013-08-20 08:01:00,65.0,65.0,-100.00,SSW,193,0.0,0.0,100,0.00,,,0.02,0.000000,,2013-08-20 12:01:00,
2013-08-20 08:42:00,67.0,67.0,-100.00,SSE,151,0.0,0.0,100,0.00,,,0.01,53.000000,,2013-08-20 12:42:00,
2013-08-20 08:52:00,67.0,67.0,-100.00,SSE,151,0.0,0.0,100,0.00,,,0.01,53.000000,,2013-08-20 12:52:00,
2013-08-20 09:01:00,67.0,67.0,-100.00,SSE,151,0.0,0.0,100,0.00,,,0.01,53.000000,,2013-08-20 13:01:00,
2013-08-20 09:42:00,73.0,68.0,-100.00,ENE,64,0.0,0.0,84,0.00,,,0.01,230.000000,,2013-08-20 13:42:00,
2013-08-20 09:52:00,73.0,68.0,-100.00,ENE,64,0.0,0.0,84,0.00,,,0.01,230.000000,,2013-08-20 13:52:00,
2013-08-20 10:02:00,73.0,68.0,-100.00,ENE,64,0.0,0.0,84,0.00,,,0.01,230.000000,,2013-08-20 14:02:00,
2013-08-20 10:42:00,77.0,70.0,-100.00,ENE,76,0.0,0.0,78,0.00,,,0.01,383.000000,,2013-08-20 14:42:00,
2013-08-20 10:52:00,77.0,70.0,-100.00,ENE,76,0.0,0.0,78,0.00,,,0.01,383.000000,,2013-08-20 14:52:00,
2013-08-20 11:02:00,77.0,70.0,-100.00,ENE,76,0.0,0.0,78,0.00,,,0.01,383.000000,,2013-08-20 15:02:00,
2013-08-20 11:43:00,76.0,69.0,-100.00,West,269,0.0,0.0,79,0.00,,,0.01,401.000000,,2013-08-20 15:43:00,
2013-08-20 11:54:00,76.0,69.0,-100.00,West,269,0.0,0.0,79,0.00,,,0.01,401.000000,,2013-08-20 15:54:00,
2013-08-20 12:04:00,76.0,69.0,-100.00,West,269,0.0,0.0,79,0.00,,,0.01,401.000000,,2013-08-20 16:04:00,
2013-08-20 12:30:00,-999.0,-99.9,-100.00,NW,321,0.0,4.0,70,0.00,,,0.01,466.000000,,2013-08-20 16:30:00,
2013-08-20 12:42:00,80.0,69.0,-100.00,NW,321,0.0,4.0,70,0.00,,,0.01,466.000000,,2013-08-20 16:42:00,
2013-08-20 12:53:00,80.0,69.0,-100.00,NW,321,0.0,4.0,70,0.00,,,0.01,466.000000,,2013-08-20 16:53:00,
2013-08-20 13:03:00,80.0,69.0,-100.00,NW,321,0.0,4.0,70,0.00,,,0.01,466.000000,,2013-08-20 17:03:00,
2013-08-20 13:43:00,81.0,69.0,-100.00,NNW,333,1.0,5.0,68,0.00,,,0.01,554.000000,,2013-08-20 17:43:00,
2013-08-20 13:52:00,81.0,69.0,-100.00,NNW,333,1.0,5.0,68,0.00,,,0.01,554.000000,,2013-08-20 17:52:00,
2013-08-20 14:02:00,81.0,69.0,-100.00,NNW,333,1.0,5.0,68,0.00,,,0.01,554.000000,,2013-08-20 18:02:00,
2013-08-20 14:43:00,85.0,68.0,-100.00,NE,45,2.0,6.0,57,0.00,,,0.01,837.000000,,2013-08-20 18:43:00,
2013-08-20 14:52:00,85.0,68.0,-100.00,NE,45,2.0,6.0,57,0.00,,,0.01,837.000000,,2013-08-20 18:52:00,
2013-08-20 15:01:00,85.0,68.0,-100.00,NE,45,2.0,6.0,57,0.00,,,0.01,837.000000,,2013-08-20 19:01:00,
2013-08-20 15:42:00,87.0,69.0,-100.00,NNE,24,1.0,7.0,56,0.00,,,0.01,568.000000,,2013-08-20 19:42:00,
2013-08-20 15:53:00,87.0,69.0,-100.00,NNE,24,1.0,7.0,56,0.00,,,0.01,568.000000,,2013-08-20 19:53:00,
2013-08-20 16:03:00,87.0,69.0,-100.00,NNE,24,1.0,7.0,56,0.00,,,0.01,568.000000,,2013-08-20 20:03:00,
2013-08-20 16:42:00,84.0,71.0,-100.00,ENE,57,0.0,5.0,65,0.00,,,0.01,266.000000,,2013-08-20 20:42:00,
2013-08-20 16:52:00,84.0,71.0,-100.00,ENE,57,0.0,5.0,65,0.00,,,0.01,266.000000,,2013-08-20 20:52:00,
2013-08-20 17:03:00,84.0,71.0,-100.00,ENE,57,0.0,5.0,65,0.00,,,0.01,266.000000,,2013-08-20 21:03:00,
2013-08-20 18:42:00,83.0,69.0,-100.00,WSW,242,0.0,8.0,62,0.00,,,0.00,199.000000,,2013-08-20 22:42:00,
2013-08-20 18:54:00,83.0,69.0,-100.00,WSW,242,0.0,8.0,62,0.00,,,0.00,199.000000,,2013-08-20 22:54:00,
2013-08-20 19:03:00,83.0,69.0,-100.00,WSW,242,0.0,8.0,62,0.00,,,0.00,199.000000,,2013-08-20 23:03:00,
2013-08-20 19:43:00,81.0,69.0,-100.00,SSE,157,1.0,6.0,67,0.00,,,0.00,119.000000,,2013-08-20 23:43:00,
2013-08-20 19:53:00,81.0,69.0,-100.00,SSE,157,1.0,6.0,67,0.00,,,0.00,119.000000,,2013-08-20 23:53:00,
2013-08-20 20:02:00,81.0,69.0,-100.00,SSE,157,1.0,6.0,67,0.00,,,0.00,119.000000,,2013-08-21 00:02:00,
2013-08-20 20:42:00,79.0,69.0,-100.00,SE,132,0.0,3.0,71,0.00,,,0.00,29.000000,,2013-08-21 00:42:00,
2013-08-20 20:52:00,79.0,69.0,-100.00,SE,132,0.0,3.0,71,0.00,,,0.00,29.000000,,2013-08-21 00:52:00,
2013-08-20 21:02:00,79.0,69.0,-100.00,SE,132,0.0,3.0,71,0.00,,,0.00,29.000000,,2013-08-21 01:02:00,
2013-08-20 21:42:00,76.0,70.0,-100.00,West,259,1.0,3.0,82,0.00,,,0.00,1.000000,,2013-08-21 01:42:00,
2013-08-20 21:52:00,76.0,70.0,-100.00,West,259,1.0,3.0,82,0.00,,,0.00,1.000000,,2013-08-21 01:52:00,
2013-08-20 22:02:00,76.0,70.0,-100.00,West,259,1.0,3.0,82,0.00,,,0.00,1.000000,,2013-08-21 02:02:00,
2013-08-20 22:42:00,74.0,69.0,-100.00,SSW,192,0.0,3.0,84,0.00,,,0.00,0.000000,,2013-08-21 02:42:00,
2013-08-20 22:52:00,74.0,69.0,-100.00,SSW,192,0.0,3.0,84,0.00,,,0.00,0.000000,,2013-08-21 02:52:00,
2013-08-20 23:02:00,74.0,69.0,-100.00,SSW,192,0.0,3.0,84,0.00,,,0.00,0.000000,,2013-08-21 03:02:00,
2013-08-20 23:44:00,72.0,70.0,-100.00,WSW,243,0.0,0.0,94,0.00,,,0.00,0.000000,,2013-08-21 03:44:00,
2013-08-20 23:55:00,72.0,70.0,-100.00,WSW,243,0.0,0.0,94,0.00,,,0.00,0.000000,,2013-08-21 03:55:00,